<?xml version='1.0' encoding='UTF-8'?><gpx version="1.1" creator="JPX - https://github.com/jenetics/jpx" xmlns="http://www.topografix.com/GPX/1/1"><trk><trkseg><trkpt lat="43.9419744" lon="8.1268454"><ele>228.0</ele><time>2026-04-05T11:51:41.089Z</time></trkpt><trkpt lat="43.9420611" lon="8.126792"><ele>228.0</ele><time>2026-04-05T11:51:43.088Z</time></trkpt><trkpt lat="43.9421553" lon="8.1267323"><ele>228.0</ele><time>2026-04-05T11:51:45.088Z</time></trkpt><trkpt lat="43.9422566" lon="8.1267075"><ele>228.0</ele><time>2026-04-05T11:51:47.089Z</time></trkpt><trkpt lat="43.9423702" lon="8.1267473"><ele>228.0</ele><time>2026-04-05T11:51:49.089Z</time></trkpt><trkpt lat="43.942424" lon="8.1267967"><ele>228.0</ele><time>2026-04-05T11:51:50.089Z</time></trkpt><trkpt lat="43.9424722" lon="8.1268575"><ele>227.99999999999997</ele><time>2026-04-05T11:51:51.089Z</time></trkpt><trkpt lat="43.9425226" lon="8.1269166"><ele>228.0</ele><time>2026-04-05T11:51:52.09Z</time></trkpt><trkpt lat="43.9425764" lon="8.1269733"><ele>228.0</ele><time>2026-04-05T11:51:53.089Z</time></trkpt><trkpt lat="43.9426298" lon="8.127039"><ele>227.99999999999997</ele><time>2026-04-05T11:51:54.09Z</time></trkpt><trkpt lat="43.9426892" lon="8.1270993"><ele>228.0</ele><time>2026-04-05T11:51:55.089Z</time></trkpt><trkpt lat="43.9427516" lon="8.1271712"><ele>228.0</ele><time>2026-04-05T11:51:56.088Z</time></trkpt><trkpt lat="43.9428161" lon="8.1272414"><ele>227.83333333333334</ele><time>2026-04-05T11:51:57.088Z</time></trkpt><trkpt lat="43.942883" lon="8.1273112"><ele>227.66666666666669</ele><time>2026-04-05T11:51:58.089Z</time></trkpt><trkpt lat="43.9429507" lon="8.1273753"><ele>227.5</ele><time>2026-04-05T11:51:59.088Z</time></trkpt><trkpt lat="43.9430203" lon="8.12743"><ele>227.33333333333334</ele><time>2026-04-05T11:52:00.09Z</time></trkpt><trkpt lat="43.9430944" lon="8.1274738"><ele>227.16666666666669</ele><time>2026-04-05T11:52:01.088Z</time></trkpt><trkpt lat="43.9431737" lon="8.1275098"><ele>227.0</ele><time>2026-04-05T11:52:02.088Z</time></trkpt><trkpt lat="43.9432578" lon="8.1275391"><ele>227.00000000000003</ele><time>2026-04-05T11:52:03.089Z</time></trkpt><trkpt lat="43.9433434" lon="8.1275607"><ele>227.0</ele><time>2026-04-05T11:52:04.088Z</time></trkpt><trkpt lat="43.9434288" lon="8.1275757"><ele>227.0</ele><time>2026-04-05T11:52:05.088Z</time></trkpt><trkpt lat="43.9435057" lon="8.1275916"><ele>227.0</ele><time>2026-04-05T11:52:06.088Z</time></trkpt><trkpt lat="43.9435716" lon="8.1276116"><ele>227.00000000000003</ele><time>2026-04-05T11:52:07.088Z</time></trkpt><trkpt lat="43.943692" lon="8.1276639"><ele>227.0</ele><time>2026-04-05T11:52:09.089Z</time></trkpt><trkpt lat="43.9437503" lon="8.1277086"><ele>230.83333333333334</ele><time>2026-04-05T11:52:10.089Z</time></trkpt><trkpt lat="43.9438112" lon="8.1277627"><ele>234.66666666666669</ele><time>2026-04-05T11:52:11.089Z</time></trkpt><trkpt lat="43.9438749" lon="8.1278174"><ele>238.5</ele><time>2026-04-05T11:52:12.089Z</time></trkpt><trkpt lat="43.9439402" lon="8.1278731"><ele>242.33333333333331</ele><time>2026-04-05T11:52:13.089Z</time></trkpt><trkpt lat="43.9440041" lon="8.1279372"><ele>246.16666666666666</ele><time>2026-04-05T11:52:14.088Z</time></trkpt><trkpt lat="43.9440667" lon="8.128014"><ele>250.0</ele><time>2026-04-05T11:52:15.089Z</time></trkpt><trkpt lat="43.944125" lon="8.1281017"><ele>250.0</ele><time>2026-04-05T11:52:16.089Z</time></trkpt><trkpt lat="43.9441813" lon="8.1281912"><ele>250.0</ele><time>2026-04-05T11:52:17.088Z</time></trkpt><trkpt lat="43.9442401" lon="8.1282811"><ele>250.0</ele><time>2026-04-05T11:52:18.088Z</time></trkpt><trkpt lat="43.9442946" lon="8.1283713"><ele>250.0</ele><time>2026-04-05T11:52:19.089Z</time></trkpt><trkpt lat="43.9443506" lon="8.1284694"><ele>250.0</ele><time>2026-04-05T11:52:20.088Z</time></trkpt><trkpt lat="43.9444101" lon="8.128586"><ele>250.49999999999997</ele><time>2026-04-05T11:52:21.089Z</time></trkpt><trkpt lat="43.9444492" lon="8.1286926"><ele>251.0</ele><time>2026-04-05T11:52:22.088Z</time></trkpt><trkpt lat="43.9444772" lon="8.1287908"><ele>251.5</ele><time>2026-04-05T11:52:23.089Z</time></trkpt><trkpt lat="43.9444874" lon="8.1288796"><ele>252.0</ele><time>2026-04-05T11:52:24.088Z</time></trkpt><trkpt lat="43.9445123" lon="8.1290374"><ele>252.49999999999997</ele><time>2026-04-05T11:52:26.089Z</time></trkpt><trkpt lat="43.9445422" lon="8.1291378"><ele>253.0</ele><time>2026-04-05T11:52:28.088Z</time></trkpt><trkpt lat="43.9445841" lon="8.1292042"><ele>252.99999999999997</ele><time>2026-04-05T11:52:30.089Z</time></trkpt><trkpt lat="43.9446582" lon="8.1291518"><ele>253.0</ele><time>2026-04-05T11:52:33.09Z</time></trkpt><trkpt lat="43.944678" lon="8.1290536"><ele>253.0</ele><time>2026-04-05T11:52:35.088Z</time></trkpt><trkpt lat="43.9446795" lon="8.1289137"><ele>253.0</ele><time>2026-04-05T11:52:37.088Z</time></trkpt><trkpt lat="43.9446676" lon="8.1287894"><ele>252.99999999999997</ele><time>2026-04-05T11:52:39.089Z</time></trkpt><trkpt lat="43.9446461" lon="8.1286684"><ele>253.0</ele><time>2026-04-05T11:52:41.089Z</time></trkpt><trkpt lat="43.9446247" lon="8.128521"><ele>252.99999999999997</ele><time>2026-04-05T11:52:43.088Z</time></trkpt><trkpt lat="43.9446107" lon="8.1284335"><ele>253.0</ele><time>2026-04-05T11:52:44.09Z</time></trkpt><trkpt lat="43.9445869" lon="8.1283495"><ele>253.0</ele><time>2026-04-05T11:52:45.089Z</time></trkpt><trkpt lat="43.9445575" lon="8.1282649"><ele>253.0</ele><time>2026-04-05T11:52:46.088Z</time></trkpt><trkpt lat="43.9445263" lon="8.1281865"><ele>252.99999999999997</ele><time>2026-04-05T11:52:47.088Z</time></trkpt><trkpt lat="43.9444665" lon="8.128044"><ele>253.0</ele><time>2026-04-05T11:52:49.088Z</time></trkpt><trkpt lat="43.9444106" lon="8.1279287"><ele>252.4</ele><time>2026-04-05T11:52:51.089Z</time></trkpt><trkpt lat="43.9443488" lon="8.1278208"><ele>251.8</ele><time>2026-04-05T11:52:53.088Z</time></trkpt><trkpt lat="43.9442764" lon="8.1277123"><ele>251.2</ele><time>2026-04-05T11:52:55.09Z</time></trkpt><trkpt lat="43.9442025" lon="8.1276061"><ele>250.6</ele><time>2026-04-05T11:52:57.088Z</time></trkpt><trkpt lat="43.944121" lon="8.1275123"><ele>250.0</ele><time>2026-04-05T11:52:59.089Z</time></trkpt><trkpt lat="43.9440386" lon="8.1274263"><ele>256.2</ele><time>2026-04-05T11:53:01.09Z</time></trkpt><trkpt lat="43.9439398" lon="8.1273405"><ele>262.4</ele><time>2026-04-05T11:53:03.089Z</time></trkpt><trkpt lat="43.9438312" lon="8.1272818"><ele>268.6</ele><time>2026-04-05T11:53:05.089Z</time></trkpt><trkpt lat="43.9437175" lon="8.1272163"><ele>274.8</ele><time>2026-04-05T11:53:07.089Z</time></trkpt><trkpt lat="43.9436593" lon="8.1271815"><ele>281.0</ele><time>2026-04-05T11:53:08.088Z</time></trkpt><trkpt lat="43.9435534" lon="8.1271121"><ele>281.0</ele><time>2026-04-05T11:53:10.089Z</time></trkpt><trkpt lat="43.9434698" lon="8.1270568"><ele>281.0</ele><time>2026-04-05T11:53:12.089Z</time></trkpt><trkpt lat="43.9434012" lon="8.1270145"><ele>281.0</ele><time>2026-04-05T11:53:14.088Z</time></trkpt><trkpt lat="43.9433379" lon="8.1269489"><ele>281.0</ele><time>2026-04-05T11:53:16.089Z</time></trkpt><trkpt lat="43.9432727" lon="8.1268543"><ele>281.0</ele><time>2026-04-05T11:53:19.089Z</time></trkpt><trkpt lat="43.9432534" lon="8.1267653"><ele>281.0</ele><time>2026-04-05T11:53:21.089Z</time></trkpt><trkpt lat="43.9432534" lon="8.1266498"><ele>280.6</ele><time>2026-04-05T11:53:23.089Z</time></trkpt><trkpt lat="43.9432376" lon="8.1265296"><ele>280.20000000000005</ele><time>2026-04-05T11:53:25.09Z</time></trkpt><trkpt lat="43.9431969" lon="8.1264073"><ele>279.79999999999995</ele><time>2026-04-05T11:53:27.09Z</time></trkpt><trkpt lat="43.9431418" lon="8.1263091"><ele>279.4</ele><time>2026-04-05T11:53:29.088Z</time></trkpt><trkpt lat="43.9430825" lon="8.1262064"><ele>279.0</ele><time>2026-04-05T11:53:31.088Z</time></trkpt><trkpt lat="43.9430265" lon="8.1261073"><ele>279.0</ele><time>2026-04-05T11:53:33.088Z</time></trkpt><trkpt lat="43.9429538" lon="8.1260376"><ele>279.0</ele><time>2026-04-05T11:53:35.089Z</time></trkpt><trkpt lat="43.9428834" lon="8.1259752"><ele>279.0</ele><time>2026-04-05T11:53:37.089Z</time></trkpt><trkpt lat="43.9428258" lon="8.1258972"><ele>279.0</ele><time>2026-04-05T11:53:39.089Z</time></trkpt><trkpt lat="43.9427582" lon="8.125813"><ele>279.0</ele><time>2026-04-05T11:53:41.089Z</time></trkpt><trkpt lat="43.9426921" lon="8.1257343"><ele>279.0</ele><time>2026-04-05T11:53:43.089Z</time></trkpt><trkpt lat="43.9426244" lon="8.1256675"><ele>279.3333333333333</ele><time>2026-04-05T11:53:45.088Z</time></trkpt><trkpt lat="43.9425628" lon="8.1255804"><ele>279.6666666666667</ele><time>2026-04-05T11:53:47.089Z</time></trkpt><trkpt lat="43.9424941" lon="8.1255289"><ele>280.0</ele><time>2026-04-05T11:53:49.088Z</time></trkpt><trkpt lat="43.9424299" lon="8.125497"><ele>280.33333333333337</ele><time>2026-04-05T11:53:51.09Z</time></trkpt><trkpt lat="43.9423636" lon="8.125474"><ele>280.6666666666667</ele><time>2026-04-05T11:53:53.09Z</time></trkpt><trkpt lat="43.9422876" lon="8.1254841"><ele>281.0</ele><time>2026-04-05T11:53:55.089Z</time></trkpt><trkpt lat="43.9422078" lon="8.1255008"><ele>281.0</ele><time>2026-04-05T11:53:57.088Z</time></trkpt><trkpt lat="43.9421267" lon="8.1255252"><ele>281.0</ele><time>2026-04-05T11:53:59.089Z</time></trkpt><trkpt lat="43.9420543" lon="8.1255243"><ele>281.0</ele><time>2026-04-05T11:54:01.088Z</time></trkpt><trkpt lat="43.9419763" lon="8.125489"><ele>281.0</ele><time>2026-04-05T11:54:04.089Z</time></trkpt><trkpt lat="43.941905" lon="8.1254107"><ele>281.0</ele><time>2026-04-05T11:54:37.089Z</time></trkpt><trkpt lat="43.9418255" lon="8.1253294"><ele>281.0</ele><time>2026-04-05T11:54:39.089Z</time></trkpt><trkpt lat="43.9417467" lon="8.1252364"><ele>279.83333333333337</ele><time>2026-04-05T11:54:41.089Z</time></trkpt><trkpt lat="43.9416671" lon="8.1251698"><ele>278.6666666666667</ele><time>2026-04-05T11:54:43.089Z</time></trkpt><trkpt lat="43.9415903" lon="8.1251761"><ele>277.5</ele><time>2026-04-05T11:54:45.09Z</time></trkpt><trkpt lat="43.9415159" lon="8.1252106"><ele>276.3333333333333</ele><time>2026-04-05T11:54:47.088Z</time></trkpt><trkpt lat="43.9414235" lon="8.1252469"><ele>275.16666666666663</ele><time>2026-04-05T11:54:49.089Z</time></trkpt><trkpt lat="43.9413385" lon="8.1252276"><ele>274.0</ele><time>2026-04-05T11:54:51.089Z</time></trkpt><trkpt lat="43.9412889" lon="8.1251388"><ele>274.0</ele><time>2026-04-05T11:54:53.089Z</time></trkpt><trkpt lat="43.9412982" lon="8.1250378"><ele>274.0</ele><time>2026-04-05T11:54:55.089Z</time></trkpt><trkpt lat="43.9413928" lon="8.1250154"><ele>274.0</ele><time>2026-04-05T11:54:58.09Z</time></trkpt><trkpt lat="43.9414698" lon="8.125038"><ele>274.0</ele><time>2026-04-05T11:55:00.09Z</time></trkpt><trkpt lat="43.9415415" lon="8.125"><ele>274.0</ele><time>2026-04-05T11:55:02.089Z</time></trkpt><trkpt lat="43.9415767" lon="8.1249025"><ele>274.0</ele><time>2026-04-05T11:55:04.089Z</time></trkpt><trkpt lat="43.9415259" lon="8.1248041"><ele>278.0</ele><time>2026-04-05T11:55:06.089Z</time></trkpt><trkpt lat="43.9414399" lon="8.1248255"><ele>282.0</ele><time>2026-04-05T11:55:07.089Z</time></trkpt><trkpt lat="43.9413558" lon="8.1248209"><ele>286.0</ele><time>2026-04-05T11:55:09.089Z</time></trkpt><trkpt lat="43.9412784" lon="8.1247701"><ele>290.0</ele><time>2026-04-05T11:55:11.09Z</time></trkpt><trkpt lat="43.9412249" lon="8.124674"><ele>294.0</ele><time>2026-04-05T11:55:13.089Z</time></trkpt><trkpt lat="43.9411771" lon="8.124572"><ele>298.0</ele><time>2026-04-05T11:55:15.088Z</time></trkpt><trkpt lat="43.9411199" lon="8.1244901"><ele>298.0</ele><time>2026-04-05T11:55:17.088Z</time></trkpt><trkpt lat="43.9410514" lon="8.124445"><ele>298.0</ele><time>2026-04-05T11:55:19.088Z</time></trkpt><trkpt lat="43.9410028" lon="8.1243804"><ele>298.0</ele><time>2026-04-05T11:55:21.089Z</time></trkpt><trkpt lat="43.941045" lon="8.1242687"><ele>298.0</ele><time>2026-04-05T11:55:24.088Z</time></trkpt><trkpt lat="43.9411255" lon="8.1242843"><ele>298.0</ele><time>2026-04-05T11:55:26.088Z</time></trkpt><trkpt lat="43.9412237" lon="8.1243458"><ele>298.0</ele><time>2026-04-05T11:55:28.089Z</time></trkpt><trkpt lat="43.9413196" lon="8.124384"><ele>298.0</ele><time>2026-04-05T11:55:30.09Z</time></trkpt><trkpt lat="43.9414071" lon="8.1244239"><ele>298.0</ele><time>2026-04-05T11:55:32.09Z</time></trkpt><trkpt lat="43.9414902" lon="8.1244606"><ele>298.0</ele><time>2026-04-05T11:55:34.088Z</time></trkpt><trkpt lat="43.9415577" lon="8.1244547"><ele>298.0</ele><time>2026-04-05T11:55:36.089Z</time></trkpt><trkpt lat="43.9415811" lon="8.1243734"><ele>298.0</ele><time>2026-04-05T11:55:38.089Z</time></trkpt><trkpt lat="43.9415237" lon="8.1242906"><ele>298.0</ele><time>2026-04-05T11:55:40.088Z</time></trkpt><trkpt lat="43.9414501" lon="8.1242038"><ele>298.0</ele><time>2026-04-05T11:55:42.09Z</time></trkpt><trkpt lat="43.9414247" lon="8.1241079"><ele>298.0</ele><time>2026-04-05T11:55:44.089Z</time></trkpt><trkpt lat="43.941358" lon="8.1239961"><ele>298.0</ele><time>2026-04-05T11:55:46.088Z</time></trkpt><trkpt lat="43.9412627" lon="8.1239161"><ele>298.0</ele><time>2026-04-05T11:55:48.089Z</time></trkpt><trkpt lat="43.9411666" lon="8.1238661"><ele>298.0</ele><time>2026-04-05T11:55:50.088Z</time></trkpt><trkpt lat="43.9410798" lon="8.1238322"><ele>299.7142857142857</ele><time>2026-04-05T11:55:52.089Z</time></trkpt><trkpt lat="43.9410062" lon="8.1237961"><ele>301.4285714285714</ele><time>2026-04-05T11:55:54.088Z</time></trkpt><trkpt lat="43.9409554" lon="8.1237249"><ele>303.1428571428571</ele><time>2026-04-05T11:55:56.089Z</time></trkpt><trkpt lat="43.9409278" lon="8.1236293"><ele>304.85714285714283</ele><time>2026-04-05T11:55:58.09Z</time></trkpt><trkpt lat="43.9408823" lon="8.1235632"><ele>306.57142857142856</ele><time>2026-04-05T11:56:00.09Z</time></trkpt><trkpt lat="43.9408086" lon="8.1235313"><ele>308.2857142857143</ele><time>2026-04-05T11:56:02.088Z</time></trkpt><trkpt lat="43.9407317" lon="8.1235021"><ele>310.0</ele><time>2026-04-05T11:56:04.089Z</time></trkpt><trkpt lat="43.9406644" lon="8.1234478"><ele>310.0</ele><time>2026-04-05T11:56:06.089Z</time></trkpt><trkpt lat="43.9406206" lon="8.1233456"><ele>310.0</ele><time>2026-04-05T11:56:08.088Z</time></trkpt><trkpt lat="43.940613" lon="8.1232368"><ele>310.0</ele><time>2026-04-05T11:56:10.088Z</time></trkpt><trkpt lat="43.940664" lon="8.1231671"><ele>310.0</ele><time>2026-04-05T11:56:12.089Z</time></trkpt><trkpt lat="43.9407549" lon="8.1231577"><ele>310.0</ele><time>2026-04-05T11:56:14.089Z</time></trkpt><trkpt lat="43.940848" lon="8.1232002"><ele>310.0</ele><time>2026-04-05T11:56:16.089Z</time></trkpt><trkpt lat="43.9409346" lon="8.1232337"><ele>312.0</ele><time>2026-04-05T11:56:18.088Z</time></trkpt><trkpt lat="43.9410307" lon="8.1232565"><ele>314.0</ele><time>2026-04-05T11:56:20.089Z</time></trkpt><trkpt lat="43.9411113" lon="8.1232788"><ele>316.0</ele><time>2026-04-05T11:56:22.088Z</time></trkpt><trkpt lat="43.9411776" lon="8.1232165"><ele>318.0</ele><time>2026-04-05T11:56:25.088Z</time></trkpt><trkpt lat="43.9411616" lon="8.1231243"><ele>320.0</ele><time>2026-04-05T11:56:27.089Z</time></trkpt><trkpt lat="43.9411122" lon="8.1230465"><ele>322.0</ele><time>2026-04-05T11:56:29.089Z</time></trkpt><trkpt lat="43.9410624" lon="8.1229775"><ele>322.0</ele><time>2026-04-05T11:56:31.089Z</time></trkpt><trkpt lat="43.9410118" lon="8.1229159"><ele>322.0</ele><time>2026-04-05T11:56:33.089Z</time></trkpt><trkpt lat="43.9409562" lon="8.1228701"><ele>322.0</ele><time>2026-04-05T11:56:35.088Z</time></trkpt><trkpt lat="43.9408836" lon="8.1228558"><ele>322.0</ele><time>2026-04-05T11:57:50.089Z</time></trkpt><trkpt lat="43.9407627" lon="8.1228102"><ele>322.0</ele><time>2026-04-05T11:57:53.088Z</time></trkpt><trkpt lat="43.94064" lon="8.1227547"><ele>319.0</ele><time>2026-04-05T11:57:55.088Z</time></trkpt><trkpt lat="43.940574" lon="8.1227251"><ele>316.0</ele><time>2026-04-05T11:57:56.088Z</time></trkpt><trkpt lat="43.9404619" lon="8.1226639"><ele>313.0</ele><time>2026-04-05T11:57:58.089Z</time></trkpt><trkpt lat="43.9403422" lon="8.1226222"><ele>310.0</ele><time>2026-04-05T11:58:00.088Z</time></trkpt><trkpt lat="43.9402714" lon="8.1226122"><ele>307.0</ele><time>2026-04-05T11:58:01.089Z</time></trkpt><trkpt lat="43.9401979" lon="8.1226057"><ele>307.0</ele><time>2026-04-05T11:58:02.089Z</time></trkpt><trkpt lat="43.9401229" lon="8.1225967"><ele>307.0</ele><time>2026-04-05T11:58:03.088Z</time></trkpt><trkpt lat="43.940055" lon="8.1225881"><ele>307.0</ele><time>2026-04-05T11:58:04.089Z</time></trkpt><trkpt lat="43.9399883" lon="8.1225814"><ele>307.0</ele><time>2026-04-05T11:58:05.089Z</time></trkpt><trkpt lat="43.9398772" lon="8.1225683"><ele>307.0</ele><time>2026-04-05T11:58:07.089Z</time></trkpt><trkpt lat="43.9398084" lon="8.12253"><ele>307.0</ele><time>2026-04-05T11:58:09.089Z</time></trkpt><trkpt lat="43.9398368" lon="8.1224273"><ele>303.5</ele><time>2026-04-05T11:58:12.089Z</time></trkpt><trkpt lat="43.939944" lon="8.1223651"><ele>300.0</ele><time>2026-04-05T11:58:14.089Z</time></trkpt><trkpt lat="43.9400136" lon="8.122307"><ele>296.5</ele><time>2026-04-05T11:58:15.089Z</time></trkpt><trkpt lat="43.940074" lon="8.1222556"><ele>293.0</ele><time>2026-04-05T11:58:16.09Z</time></trkpt><trkpt lat="43.9401408" lon="8.1222047"><ele>289.5</ele><time>2026-04-05T11:58:17.088Z</time></trkpt><trkpt lat="43.9402124" lon="8.1221678"><ele>286.0</ele><time>2026-04-05T11:58:18.089Z</time></trkpt><trkpt lat="43.9402871" lon="8.1221312"><ele>286.0</ele><time>2026-04-05T11:58:19.088Z</time></trkpt><trkpt lat="43.9403631" lon="8.1220983"><ele>286.0</ele><time>2026-04-05T11:58:20.089Z</time></trkpt><trkpt lat="43.9404389" lon="8.1220635"><ele>286.0</ele><time>2026-04-05T11:58:21.089Z</time></trkpt><trkpt lat="43.9405157" lon="8.1220308"><ele>286.0</ele><time>2026-04-05T11:58:22.089Z</time></trkpt><trkpt lat="43.9405937" lon="8.1219966"><ele>286.0</ele><time>2026-04-05T11:58:23.09Z</time></trkpt><trkpt lat="43.9406694" lon="8.1219458"><ele>286.0</ele><time>2026-04-05T11:58:24.09Z</time></trkpt><trkpt lat="43.9407453" lon="8.1218701"><ele>285.99999999999994</ele><time>2026-04-05T11:58:25.089Z</time></trkpt><trkpt lat="43.9408201" lon="8.1218078"><ele>286.0</ele><time>2026-04-05T11:58:26.088Z</time></trkpt><trkpt lat="43.9408871" lon="8.1217619"><ele>286.0</ele><time>2026-04-05T11:58:27.089Z</time></trkpt><trkpt lat="43.9409448" lon="8.1217197"><ele>286.0</ele><time>2026-04-05T11:58:28.088Z</time></trkpt><trkpt lat="43.9409909" lon="8.1216595"><ele>286.0</ele><time>2026-04-05T11:58:29.088Z</time></trkpt><trkpt lat="43.9410383" lon="8.1215921"><ele>285.99999999999994</ele><time>2026-04-05T11:58:30.089Z</time></trkpt><trkpt lat="43.9410792" lon="8.121513"><ele>286.0</ele><time>2026-04-05T11:58:31.088Z</time></trkpt><trkpt lat="43.9411108" lon="8.1214189"><ele>286.0</ele><time>2026-04-05T11:58:32.088Z</time></trkpt><trkpt lat="43.9411374" lon="8.1213109"><ele>286.0</ele><time>2026-04-05T11:58:33.088Z</time></trkpt><trkpt lat="43.9411627" lon="8.1212043"><ele>286.0</ele><time>2026-04-05T11:58:34.088Z</time></trkpt><trkpt lat="43.9411888" lon="8.1211058"><ele>286.0</ele><time>2026-04-05T11:58:35.088Z</time></trkpt><trkpt lat="43.941211" lon="8.121011"><ele>286.0</ele><time>2026-04-05T11:58:36.088Z</time></trkpt><trkpt lat="43.9412349" lon="8.1209278"><ele>286.0</ele><time>2026-04-05T11:58:37.088Z</time></trkpt><trkpt lat="43.9412697" lon="8.1208117"><ele>286.0</ele><time>2026-04-05T11:58:39.088Z</time></trkpt><trkpt lat="43.9413202" lon="8.1207386"><ele>286.0</ele><time>2026-04-05T11:58:41.089Z</time></trkpt><trkpt lat="43.9414195" lon="8.120696"><ele>286.0</ele><time>2026-04-05T11:58:43.089Z</time></trkpt><trkpt lat="43.9414907" lon="8.1206796"><ele>286.0</ele><time>2026-04-05T11:58:44.089Z</time></trkpt><trkpt lat="43.9415609" lon="8.1206554"><ele>286.0</ele><time>2026-04-05T11:58:45.089Z</time></trkpt><trkpt lat="43.9416278" lon="8.1206237"><ele>286.0</ele><time>2026-04-05T11:58:46.088Z</time></trkpt><trkpt lat="43.941723" lon="8.1205128"><ele>287.0</ele><time>2026-04-05T11:58:48.089Z</time></trkpt><trkpt lat="43.9417683" lon="8.1203463"><ele>288.0</ele><time>2026-04-05T11:58:50.089Z</time></trkpt><trkpt lat="43.9417716" lon="8.1202352"><ele>289.0</ele><time>2026-04-05T11:58:51.088Z</time></trkpt><trkpt lat="43.9417659" lon="8.120113"><ele>290.0</ele><time>2026-04-05T11:58:52.089Z</time></trkpt><trkpt lat="43.941755" lon="8.1199661"><ele>291.0</ele><time>2026-04-05T11:58:53.089Z</time></trkpt><trkpt lat="43.9417461" lon="8.1198197"><ele>287.6</ele><time>2026-04-05T11:58:54.089Z</time></trkpt><trkpt lat="43.9417437" lon="8.1196718"><ele>284.20000000000005</ele><time>2026-04-05T11:58:55.089Z</time></trkpt><trkpt lat="43.9417362" lon="8.1195314"><ele>280.79999999999995</ele><time>2026-04-05T11:58:56.088Z</time></trkpt><trkpt lat="43.9417261" lon="8.1193982"><ele>277.4</ele><time>2026-04-05T11:58:57.089Z</time></trkpt><trkpt lat="43.9417193" lon="8.1192712"><ele>274.0</ele><time>2026-04-05T11:58:58.089Z</time></trkpt><trkpt lat="43.9417115" lon="8.1191442"><ele>270.8</ele><time>2026-04-05T11:58:59.089Z</time></trkpt><trkpt lat="43.9417004" lon="8.1190164"><ele>267.59999999999997</ele><time>2026-04-05T11:59:00.088Z</time></trkpt><trkpt lat="43.9416843" lon="8.1188851"><ele>264.4</ele><time>2026-04-05T11:59:01.088Z</time></trkpt><trkpt lat="43.9416627" lon="8.1187516"><ele>261.2</ele><time>2026-04-05T11:59:02.089Z</time></trkpt><trkpt lat="43.9416417" lon="8.1186141"><ele>258.0</ele><time>2026-04-05T11:59:03.088Z</time></trkpt><trkpt lat="43.941619" lon="8.1184695"><ele>258.0</ele><time>2026-04-05T11:59:04.089Z</time></trkpt><trkpt lat="43.9416049" lon="8.1183324"><ele>258.0</ele><time>2026-04-05T11:59:05.088Z</time></trkpt><trkpt lat="43.9415996" lon="8.1182032"><ele>258.0</ele><time>2026-04-05T11:59:06.089Z</time></trkpt><trkpt lat="43.9415924" lon="8.1180837"><ele>258.0</ele><time>2026-04-05T11:59:07.089Z</time></trkpt><trkpt lat="43.9415788" lon="8.1179656"><ele>258.0</ele><time>2026-04-05T11:59:08.088Z</time></trkpt><trkpt lat="43.9415662" lon="8.1178397"><ele>256.0</ele><time>2026-04-05T11:59:09.09Z</time></trkpt><trkpt lat="43.9415437" lon="8.1177119"><ele>254.0</ele><time>2026-04-05T11:59:10.088Z</time></trkpt><trkpt lat="43.9415239" lon="8.1175868"><ele>252.0</ele><time>2026-04-05T11:59:11.088Z</time></trkpt><trkpt lat="43.9415047" lon="8.117464"><ele>250.0</ele><time>2026-04-05T11:59:12.089Z</time></trkpt><trkpt lat="43.9414827" lon="8.1173468"><ele>248.0</ele><time>2026-04-05T11:59:13.089Z</time></trkpt><trkpt lat="43.9414568" lon="8.1172345"><ele>244.8</ele><time>2026-04-05T11:59:14.089Z</time></trkpt><trkpt lat="43.9414301" lon="8.1171191"><ele>241.60000000000002</ele><time>2026-04-05T11:59:15.089Z</time></trkpt><trkpt lat="43.9413971" lon="8.1169881"><ele>238.39999999999998</ele><time>2026-04-05T11:59:16.089Z</time></trkpt><trkpt lat="43.9413586" lon="8.1168488"><ele>235.2</ele><time>2026-04-05T11:59:17.089Z</time></trkpt><trkpt lat="43.9413183" lon="8.1167095"><ele>232.0</ele><time>2026-04-05T11:59:18.089Z</time></trkpt><trkpt lat="43.9412807" lon="8.1165688"><ele>229.6</ele><time>2026-04-05T11:59:19.088Z</time></trkpt><trkpt lat="43.9412392" lon="8.1164297"><ele>227.2</ele><time>2026-04-05T11:59:20.089Z</time></trkpt><trkpt lat="43.9411923" lon="8.1162992"><ele>224.8</ele><time>2026-04-05T11:59:21.088Z</time></trkpt><trkpt lat="43.94115" lon="8.1161742"><ele>222.4</ele><time>2026-04-05T11:59:22.089Z</time></trkpt><trkpt lat="43.941101" lon="8.1160536"><ele>220.0</ele><time>2026-04-05T11:59:23.089Z</time></trkpt><trkpt lat="43.9410505" lon="8.1159377"><ele>219.99999999999997</ele><time>2026-04-05T11:59:24.088Z</time></trkpt><trkpt lat="43.9409995" lon="8.1158375"><ele>220.0</ele><time>2026-04-05T11:59:25.089Z</time></trkpt><trkpt lat="43.9409616" lon="8.1157608"><ele>220.0</ele><time>2026-04-05T11:59:26.088Z</time></trkpt><trkpt lat="43.9409132" lon="8.1156515"><ele>220.0</ele><time>2026-04-05T11:59:28.088Z</time></trkpt><trkpt lat="43.9408677" lon="8.1155665"><ele>219.99999999999997</ele><time>2026-04-05T11:59:30.089Z</time></trkpt><trkpt lat="43.9408206" lon="8.1154709"><ele>220.0</ele><time>2026-04-05T11:59:33.088Z</time></trkpt><trkpt lat="43.9407837" lon="8.1153791"><ele>220.0</ele><time>2026-04-05T11:59:35.089Z</time></trkpt><trkpt lat="43.9407405" lon="8.115238"><ele>220.0</ele><time>2026-04-05T11:59:37.089Z</time></trkpt><trkpt lat="43.9406905" lon="8.1150837"><ele>220.0</ele><time>2026-04-05T11:59:39.09Z</time></trkpt><trkpt lat="43.940655" lon="8.1149336"><ele>220.0</ele><time>2026-04-05T11:59:41.089Z</time></trkpt><trkpt lat="43.9406179" lon="8.1147975"><ele>220.0</ele><time>2026-04-05T11:59:43.09Z</time></trkpt><trkpt lat="43.9405643" lon="8.1147119"><ele>220.0</ele><time>2026-04-05T11:59:45.089Z</time></trkpt><trkpt lat="43.9404926" lon="8.1146382"><ele>220.0</ele><time>2026-04-05T11:59:47.089Z</time></trkpt><trkpt lat="43.9403883" lon="8.1145158"><ele>220.0</ele><time>2026-04-05T11:59:49.089Z</time></trkpt><trkpt lat="43.9403207" lon="8.1144382"><ele>220.0</ele><time>2026-04-05T11:59:50.089Z</time></trkpt><trkpt lat="43.9402509" lon="8.1143653"><ele>219.99999999999997</ele><time>2026-04-05T11:59:51.088Z</time></trkpt><trkpt lat="43.9401882" lon="8.1142984"><ele>220.0</ele><time>2026-04-05T11:59:52.088Z</time></trkpt><trkpt lat="43.9401302" lon="8.1142321"><ele>220.0</ele><time>2026-04-05T11:59:53.089Z</time></trkpt><trkpt lat="43.9400754" lon="8.1141625"><ele>220.0</ele><time>2026-04-05T11:59:54.089Z</time></trkpt><trkpt lat="43.9400218" lon="8.1140912"><ele>219.99999999999997</ele><time>2026-04-05T11:59:55.089Z</time></trkpt><trkpt lat="43.9399646" lon="8.1140203"><ele>220.0</ele><time>2026-04-05T11:59:56.088Z</time></trkpt><trkpt lat="43.9398995" lon="8.1139517"><ele>219.16666666666666</ele><time>2026-04-05T11:59:57.09Z</time></trkpt><trkpt lat="43.9398356" lon="8.1138803"><ele>218.33333333333331</ele><time>2026-04-05T11:59:58.088Z</time></trkpt><trkpt lat="43.9397767" lon="8.1138034"><ele>217.5</ele><time>2026-04-05T11:59:59.089Z</time></trkpt><trkpt lat="43.9397267" lon="8.1137228"><ele>216.66666666666669</ele><time>2026-04-05T12:00:00.089Z</time></trkpt><trkpt lat="43.9396822" lon="8.1136415"><ele>215.83333333333334</ele><time>2026-04-05T12:00:01.089Z</time></trkpt><trkpt lat="43.9396418" lon="8.1135678"><ele>215.0</ele><time>2026-04-05T12:00:02.089Z</time></trkpt><trkpt lat="43.9395739" lon="8.1134484"><ele>215.0</ele><time>2026-04-05T12:00:04.089Z</time></trkpt><trkpt lat="43.9395082" lon="8.1133695"><ele>215.0</ele><time>2026-04-05T12:00:06.089Z</time></trkpt><trkpt lat="43.939427" lon="8.1133728"><ele>215.0</ele><time>2026-04-05T12:00:08.09Z</time></trkpt><trkpt lat="43.9393417" lon="8.1134391"><ele>215.0</ele><time>2026-04-05T12:00:10.089Z</time></trkpt><trkpt lat="43.9392846" lon="8.1135492"><ele>215.0</ele><time>2026-04-05T12:00:12.089Z</time></trkpt><trkpt lat="43.9393076" lon="8.1136733"><ele>215.0</ele><time>2026-04-05T12:00:14.089Z</time></trkpt><trkpt lat="43.939406" lon="8.1137926"><ele>215.0</ele><time>2026-04-05T12:00:16.088Z</time></trkpt><trkpt lat="43.9394628" lon="8.1138682"><ele>215.0</ele><time>2026-04-05T12:00:17.089Z</time></trkpt><trkpt lat="43.9395147" lon="8.1139616"><ele>215.0</ele><time>2026-04-05T12:00:18.089Z</time></trkpt><trkpt lat="43.9395663" lon="8.1140659"><ele>215.0</ele><time>2026-04-05T12:00:19.088Z</time></trkpt><trkpt lat="43.9396132" lon="8.1141799"><ele>214.83333333333334</ele><time>2026-04-05T12:00:20.088Z</time></trkpt><trkpt lat="43.9396588" lon="8.1142928"><ele>214.66666666666669</ele><time>2026-04-05T12:00:21.089Z</time></trkpt><trkpt lat="43.9397053" lon="8.1144009"><ele>214.5</ele><time>2026-04-05T12:00:22.089Z</time></trkpt><trkpt lat="43.9397448" lon="8.1145079"><ele>214.33333333333331</ele><time>2026-04-05T12:00:23.089Z</time></trkpt><trkpt lat="43.9397775" lon="8.1146142"><ele>214.16666666666666</ele><time>2026-04-05T12:00:24.089Z</time></trkpt><trkpt lat="43.9398037" lon="8.1147266"><ele>214.0</ele><time>2026-04-05T12:00:25.089Z</time></trkpt><trkpt lat="43.939823" lon="8.1148394"><ele>212.49999999999997</ele><time>2026-04-05T12:00:26.089Z</time></trkpt><trkpt lat="43.9398229" lon="8.1149578"><ele>211.0</ele><time>2026-04-05T12:00:27.088Z</time></trkpt><trkpt lat="43.9398128" lon="8.115076"><ele>209.5</ele><time>2026-04-05T12:00:28.09Z</time></trkpt><trkpt lat="43.9397937" lon="8.1151939"><ele>208.0</ele><time>2026-04-05T12:00:29.088Z</time></trkpt><trkpt lat="43.939776" lon="8.1152954"><ele>206.49999999999997</ele><time>2026-04-05T12:00:30.088Z</time></trkpt><trkpt lat="43.9397471" lon="8.1153898"><ele>205.0</ele><time>2026-04-05T12:00:31.089Z</time></trkpt><trkpt lat="43.9397121" lon="8.1154746"><ele>205.0</ele><time>2026-04-05T12:00:32.089Z</time></trkpt><trkpt lat="43.9396686" lon="8.1155532"><ele>205.0</ele><time>2026-04-05T12:00:33.09Z</time></trkpt><trkpt lat="43.9396257" lon="8.1156232"><ele>205.0</ele><time>2026-04-05T12:00:34.088Z</time></trkpt><trkpt lat="43.9395771" lon="8.1156948"><ele>205.0</ele><time>2026-04-05T12:00:35.089Z</time></trkpt><trkpt lat="43.9395204" lon="8.1157552"><ele>205.0</ele><time>2026-04-05T12:00:36.088Z</time></trkpt><trkpt lat="43.9394561" lon="8.1158126"><ele>205.0</ele><time>2026-04-05T12:00:37.089Z</time></trkpt><trkpt lat="43.9393931" lon="8.11587"><ele>205.0</ele><time>2026-04-05T12:00:38.089Z</time></trkpt><trkpt lat="43.9393422" lon="8.1159305"><ele>205.0</ele><time>2026-04-05T12:00:39.09Z</time></trkpt><trkpt lat="43.9392642" lon="8.1160246"><ele>205.0</ele><time>2026-04-05T12:00:41.089Z</time></trkpt><trkpt lat="43.9391909" lon="8.1160321"><ele>205.0</ele><time>2026-04-05T12:00:43.089Z</time></trkpt><trkpt lat="43.9391526" lon="8.1159411"><ele>205.0</ele><time>2026-04-05T12:00:45.089Z</time></trkpt><trkpt lat="43.9391964" lon="8.1157551"><ele>205.0</ele><time>2026-04-05T12:00:47.089Z</time></trkpt><trkpt lat="43.9392343" lon="8.1156407"><ele>204.99999999999997</ele><time>2026-04-05T12:00:48.089Z</time></trkpt><trkpt lat="43.9392658" lon="8.1155229"><ele>205.0</ele><time>2026-04-05T12:00:49.088Z</time></trkpt><trkpt lat="43.9392943" lon="8.1154044"><ele>205.0</ele><time>2026-04-05T12:00:50.088Z</time></trkpt><trkpt lat="43.9393137" lon="8.1152899"><ele>205.0</ele><time>2026-04-05T12:00:51.088Z</time></trkpt><trkpt lat="43.9393201" lon="8.1151926"><ele>204.99999999999997</ele><time>2026-04-05T12:00:52.089Z</time></trkpt><trkpt lat="43.9393057" lon="8.1150903"><ele>205.0</ele><time>2026-04-05T12:00:53.09Z</time></trkpt><trkpt lat="43.939277" lon="8.1149947"><ele>204.99999999999997</ele><time>2026-04-05T12:00:54.089Z</time></trkpt><trkpt lat="43.9392263" lon="8.1149103"><ele>205.0</ele><time>2026-04-05T12:00:55.089Z</time></trkpt><trkpt lat="43.9391625" lon="8.1148338"><ele>205.0</ele><time>2026-04-05T12:00:56.089Z</time></trkpt><trkpt lat="43.9390964" lon="8.1147725"><ele>205.0</ele><time>2026-04-05T12:00:57.089Z</time></trkpt><trkpt lat="43.9390426" lon="8.1147246"><ele>204.99999999999997</ele><time>2026-04-05T12:00:58.088Z</time></trkpt><trkpt lat="43.9389518" lon="8.1146727"><ele>205.0</ele><time>2026-04-05T12:01:00.088Z</time></trkpt><trkpt lat="43.9388963" lon="8.1147543"><ele>202.4</ele><time>2026-04-05T12:01:02.089Z</time></trkpt><trkpt lat="43.9389309" lon="8.1148979"><ele>199.8</ele><time>2026-04-05T12:01:04.088Z</time></trkpt><trkpt lat="43.9389501" lon="8.1149922"><ele>197.2</ele><time>2026-04-05T12:01:05.088Z</time></trkpt><trkpt lat="43.9389432" lon="8.1151559"><ele>194.6</ele><time>2026-04-05T12:01:07.089Z</time></trkpt><trkpt lat="43.9388664" lon="8.1152868"><ele>192.0</ele><time>2026-04-05T12:01:09.089Z</time></trkpt><trkpt lat="43.9388002" lon="8.1153293"><ele>190.85714285714283</ele><time>2026-04-05T12:01:10.088Z</time></trkpt><trkpt lat="43.938731" lon="8.1153753"><ele>189.71428571428572</ele><time>2026-04-05T12:01:11.089Z</time></trkpt><trkpt lat="43.9386682" lon="8.1154343"><ele>188.57142857142856</ele><time>2026-04-05T12:01:12.089Z</time></trkpt><trkpt lat="43.9386121" lon="8.1155001"><ele>187.42857142857142</ele><time>2026-04-05T12:01:13.089Z</time></trkpt><trkpt lat="43.9385607" lon="8.1155723"><ele>186.28571428571428</ele><time>2026-04-05T12:01:14.089Z</time></trkpt><trkpt lat="43.9385204" lon="8.1156532"><ele>185.14285714285714</ele><time>2026-04-05T12:01:15.09Z</time></trkpt><trkpt lat="43.9384836" lon="8.1157328"><ele>184.0</ele><time>2026-04-05T12:01:16.088Z</time></trkpt><trkpt lat="43.938448" lon="8.1158057"><ele>180.5</ele><time>2026-04-05T12:01:17.088Z</time></trkpt><trkpt lat="43.9383565" lon="8.1159215"><ele>177.0</ele><time>2026-04-05T12:01:19.089Z</time></trkpt><trkpt lat="43.9382951" lon="8.1159509"><ele>173.5</ele><time>2026-04-05T12:01:20.088Z</time></trkpt><trkpt lat="43.9382255" lon="8.1159685"><ele>170.0</ele><time>2026-04-05T12:01:21.089Z</time></trkpt><trkpt lat="43.9381486" lon="8.1159761"><ele>166.5</ele><time>2026-04-05T12:01:22.088Z</time></trkpt><trkpt lat="43.9380694" lon="8.115983"><ele>163.0</ele><time>2026-04-05T12:01:23.089Z</time></trkpt><trkpt lat="43.9379922" lon="8.115989"><ele>163.0</ele><time>2026-04-05T12:01:24.089Z</time></trkpt><trkpt lat="43.9379241" lon="8.1159965"><ele>163.0</ele><time>2026-04-05T12:01:25.09Z</time></trkpt><trkpt lat="43.9378198" lon="8.1160269"><ele>163.0</ele><time>2026-04-05T12:01:27.088Z</time></trkpt><trkpt lat="43.9377426" lon="8.1160052"><ele>163.0</ele><time>2026-04-05T12:01:29.089Z</time></trkpt><trkpt lat="43.9377222" lon="8.1158922"><ele>163.0</ele><time>2026-04-05T12:01:31.088Z</time></trkpt><trkpt lat="43.9377589" lon="8.1157563"><ele>163.0</ele><time>2026-04-05T12:01:33.088Z</time></trkpt><trkpt lat="43.9378192" lon="8.1156304"><ele>161.5</ele><time>2026-04-05T12:01:35.088Z</time></trkpt><trkpt lat="43.9378889" lon="8.1155051"><ele>160.0</ele><time>2026-04-05T12:01:37.088Z</time></trkpt><trkpt lat="43.9379357" lon="8.1154463"><ele>158.5</ele><time>2026-04-05T12:01:38.089Z</time></trkpt><trkpt lat="43.9379885" lon="8.1153964"><ele>157.0</ele><time>2026-04-05T12:01:39.088Z</time></trkpt><trkpt lat="43.9381086" lon="8.1153276"><ele>155.5</ele><time>2026-04-05T12:01:41.089Z</time></trkpt><trkpt lat="43.9381693" lon="8.1152948"><ele>154.0</ele><time>2026-04-05T12:01:42.09Z</time></trkpt><trkpt lat="43.9382404" lon="8.1152136"><ele>154.0</ele><time>2026-04-05T12:01:44.089Z</time></trkpt><trkpt lat="43.9382023" lon="8.1150984"><ele>154.0</ele><time>2026-04-05T12:01:46.09Z</time></trkpt><trkpt lat="43.938078" lon="8.1150392"><ele>154.0</ele><time>2026-04-05T12:01:48.088Z</time></trkpt><trkpt lat="43.9379934" lon="8.1150299"><ele>154.0</ele><time>2026-04-05T12:01:49.09Z</time></trkpt><trkpt lat="43.9379025" lon="8.1150298"><ele>154.0</ele><time>2026-04-05T12:01:50.089Z</time></trkpt><trkpt lat="43.9378115" lon="8.1150283"><ele>154.0</ele><time>2026-04-05T12:01:51.089Z</time></trkpt><trkpt lat="43.9377237" lon="8.1150271"><ele>154.0</ele><time>2026-04-05T12:01:52.088Z</time></trkpt><trkpt lat="43.937639" lon="8.1150387"><ele>154.0</ele><time>2026-04-05T12:01:53.089Z</time></trkpt><trkpt lat="43.9375609" lon="8.1150569"><ele>154.0</ele><time>2026-04-05T12:01:54.088Z</time></trkpt><trkpt lat="43.9374873" lon="8.1150748"><ele>154.0</ele><time>2026-04-05T12:01:55.088Z</time></trkpt><trkpt lat="43.9374247" lon="8.1150924"><ele>154.0</ele><time>2026-04-05T12:01:56.09Z</time></trkpt><trkpt lat="43.9373237" lon="8.115087"><ele>155.4</ele><time>2026-04-05T12:01:58.088Z</time></trkpt><trkpt lat="43.93727" lon="8.1149838"><ele>156.8</ele><time>2026-04-05T12:02:00.088Z</time></trkpt><trkpt lat="43.9373031" lon="8.1148655"><ele>158.20000000000002</ele><time>2026-04-05T12:02:02.088Z</time></trkpt><trkpt lat="43.9374152" lon="8.1147668"><ele>159.60000000000002</ele><time>2026-04-05T12:02:04.088Z</time></trkpt><trkpt lat="43.9374902" lon="8.1147263"><ele>161.0</ele><time>2026-04-05T12:02:05.088Z</time></trkpt><trkpt lat="43.9375689" lon="8.1146988"><ele>161.0</ele><time>2026-04-05T12:02:06.088Z</time></trkpt><trkpt lat="43.9376442" lon="8.1146871"><ele>161.0</ele><time>2026-04-05T12:02:07.089Z</time></trkpt><trkpt lat="43.9377145" lon="8.114688"><ele>161.0</ele><time>2026-04-05T12:02:08.088Z</time></trkpt><trkpt lat="43.9378315" lon="8.1146692"><ele>161.0</ele><time>2026-04-05T12:02:10.089Z</time></trkpt><trkpt lat="43.9378984" lon="8.1145668"><ele>161.0</ele><time>2026-04-05T12:02:12.088Z</time></trkpt><trkpt lat="43.9378881" lon="8.1143965"><ele>161.0</ele><time>2026-04-05T12:02:14.088Z</time></trkpt><trkpt lat="43.9378578" lon="8.1143038"><ele>161.0</ele><time>2026-04-05T12:02:15.09Z</time></trkpt><trkpt lat="43.9378113" lon="8.114197"><ele>161.0</ele><time>2026-04-05T12:02:16.089Z</time></trkpt><trkpt lat="43.9377657" lon="8.1140978"><ele>161.0</ele><time>2026-04-05T12:02:17.088Z</time></trkpt><trkpt lat="43.9377148" lon="8.1140017"><ele>161.0</ele><time>2026-04-05T12:02:18.089Z</time></trkpt><trkpt lat="43.9376586" lon="8.1139128"><ele>161.0</ele><time>2026-04-05T12:02:19.089Z</time></trkpt><trkpt lat="43.9375995" lon="8.1138239"><ele>157.8</ele><time>2026-04-05T12:02:20.088Z</time></trkpt><trkpt lat="43.9375371" lon="8.1137349"><ele>154.60000000000002</ele><time>2026-04-05T12:02:21.089Z</time></trkpt><trkpt lat="43.937471" lon="8.1136474"><ele>151.4</ele><time>2026-04-05T12:02:22.088Z</time></trkpt><trkpt lat="43.9374018" lon="8.1135597"><ele>148.2</ele><time>2026-04-05T12:02:23.089Z</time></trkpt><trkpt lat="43.9373279" lon="8.1134786"><ele>145.0</ele><time>2026-04-05T12:02:24.089Z</time></trkpt><trkpt lat="43.9372501" lon="8.1133998"><ele>145.0</ele><time>2026-04-05T12:02:25.089Z</time></trkpt><trkpt lat="43.9371709" lon="8.1133282"><ele>145.0</ele><time>2026-04-05T12:02:26.089Z</time></trkpt><trkpt lat="43.937091" lon="8.1132601"><ele>145.0</ele><time>2026-04-05T12:02:27.089Z</time></trkpt><trkpt lat="43.9370127" lon="8.1131928"><ele>145.0</ele><time>2026-04-05T12:02:28.09Z</time></trkpt><trkpt lat="43.9369382" lon="8.1131203"><ele>145.0</ele><time>2026-04-05T12:02:29.09Z</time></trkpt><trkpt lat="43.9368664" lon="8.1130455"><ele>144.5</ele><time>2026-04-05T12:02:30.089Z</time></trkpt><trkpt lat="43.9367968" lon="8.1129787"><ele>144.0</ele><time>2026-04-05T12:02:31.089Z</time></trkpt><trkpt lat="43.9367275" lon="8.1129182"><ele>143.5</ele><time>2026-04-05T12:02:32.089Z</time></trkpt><trkpt lat="43.9366585" lon="8.1128576"><ele>143.0</ele><time>2026-04-05T12:02:33.09Z</time></trkpt><trkpt lat="43.936591" lon="8.112795"><ele>142.5</ele><time>2026-04-05T12:02:34.088Z</time></trkpt><trkpt lat="43.9365223" lon="8.1127353"><ele>142.0</ele><time>2026-04-05T12:02:35.089Z</time></trkpt><trkpt lat="43.9364532" lon="8.1126762"><ele>142.0</ele><time>2026-04-05T12:02:36.089Z</time></trkpt><trkpt lat="43.9363786" lon="8.1126178"><ele>142.0</ele><time>2026-04-05T12:02:37.088Z</time></trkpt><trkpt lat="43.9363047" lon="8.1125578"><ele>142.0</ele><time>2026-04-05T12:02:38.088Z</time></trkpt><trkpt lat="43.9362305" lon="8.1124995"><ele>142.0</ele><time>2026-04-05T12:02:39.09Z</time></trkpt><trkpt lat="43.9361586" lon="8.1124526"><ele>142.0</ele><time>2026-04-05T12:02:40.088Z</time></trkpt><trkpt lat="43.9360853" lon="8.1124206"><ele>142.0</ele><time>2026-04-05T12:02:41.09Z</time></trkpt><trkpt lat="43.9360029" lon="8.1123996"><ele>142.33333333333334</ele><time>2026-04-05T12:02:42.088Z</time></trkpt><trkpt lat="43.935917" lon="8.112385"><ele>142.66666666666669</ele><time>2026-04-05T12:02:43.089Z</time></trkpt><trkpt lat="43.935829" lon="8.112375"><ele>143.0</ele><time>2026-04-05T12:02:44.09Z</time></trkpt><trkpt lat="43.935749" lon="8.112371"><ele>143.33333333333334</ele><time>2026-04-05T12:02:45.088Z</time></trkpt><trkpt lat="43.9356734" lon="8.112376"><ele>143.66666666666666</ele><time>2026-04-05T12:02:46.089Z</time></trkpt><trkpt lat="43.9356034" lon="8.1123832"><ele>144.0</ele><time>2026-04-05T12:02:47.089Z</time></trkpt><trkpt lat="43.9354866" lon="8.1123986"><ele>140.5</ele><time>2026-04-05T12:02:49.089Z</time></trkpt><trkpt lat="43.9354214" lon="8.1124579"><ele>137.0</ele><time>2026-04-05T12:02:51.088Z</time></trkpt><trkpt lat="43.9354557" lon="8.1125496"><ele>133.5</ele><time>2026-04-05T12:02:53.088Z</time></trkpt><trkpt lat="43.9355626" lon="8.1125839"><ele>130.0</ele><time>2026-04-05T12:02:55.089Z</time></trkpt><trkpt lat="43.9356325" lon="8.112598"><ele>126.5</ele><time>2026-04-05T12:02:56.088Z</time></trkpt><trkpt lat="43.9357013" lon="8.112637"><ele>123.0</ele><time>2026-04-05T12:02:57.088Z</time></trkpt><trkpt lat="43.9357705" lon="8.1126951"><ele>123.0</ele><time>2026-04-05T12:02:58.089Z</time></trkpt><trkpt lat="43.9358315" lon="8.1127478"><ele>123.0</ele><time>2026-04-05T12:02:59.089Z</time></trkpt><trkpt lat="43.9358992" lon="8.1128592"><ele>123.0</ele><time>2026-04-05T12:03:01.09Z</time></trkpt><trkpt lat="43.9358681" lon="8.11299"><ele>123.0</ele><time>2026-04-05T12:03:03.089Z</time></trkpt><trkpt lat="43.9358131" lon="8.1130474"><ele>123.0</ele><time>2026-04-05T12:03:04.088Z</time></trkpt><trkpt lat="43.9357404" lon="8.1131025"><ele>123.0</ele><time>2026-04-05T12:03:05.088Z</time></trkpt><trkpt lat="43.9356703" lon="8.1131859"><ele>123.0</ele><time>2026-04-05T12:03:06.088Z</time></trkpt><trkpt lat="43.9356107" lon="8.1132685"><ele>123.0</ele><time>2026-04-05T12:03:07.088Z</time></trkpt><trkpt lat="43.9355554" lon="8.1133338"><ele>123.0</ele><time>2026-04-05T12:03:08.089Z</time></trkpt><trkpt lat="43.9354427" lon="8.1133937"><ele>123.0</ele><time>2026-04-05T12:03:10.09Z</time></trkpt><trkpt lat="43.9353755" lon="8.1133573"><ele>123.0</ele><time>2026-04-05T12:03:11.089Z</time></trkpt><trkpt lat="43.9352956" lon="8.1132996"><ele>123.0</ele><time>2026-04-05T12:03:12.089Z</time></trkpt><trkpt lat="43.935203" lon="8.1132322"><ele>123.0</ele><time>2026-04-05T12:03:13.088Z</time></trkpt><trkpt lat="43.9351158" lon="8.1131767"><ele>123.0</ele><time>2026-04-05T12:03:14.089Z</time></trkpt><trkpt lat="43.9350468" lon="8.1131051"><ele>123.0</ele><time>2026-04-05T12:03:15.09Z</time></trkpt><trkpt lat="43.9349902" lon="8.1130344"><ele>123.0</ele><time>2026-04-05T12:03:16.09Z</time></trkpt><trkpt lat="43.9349281" lon="8.1129946"><ele>123.0</ele><time>2026-04-05T12:03:17.089Z</time></trkpt><trkpt lat="43.9348536" lon="8.1129794"><ele>123.0</ele><time>2026-04-05T12:03:18.088Z</time></trkpt><trkpt lat="43.9347768" lon="8.1129725"><ele>122.14285714285717</ele><time>2026-04-05T12:03:19.089Z</time></trkpt><trkpt lat="43.9347016" lon="8.1129873"><ele>121.28571428571429</ele><time>2026-04-05T12:03:20.088Z</time></trkpt><trkpt lat="43.9346338" lon="8.1130295"><ele>120.42857142857144</ele><time>2026-04-05T12:03:21.09Z</time></trkpt><trkpt lat="43.9345815" lon="8.113099"><ele>119.57142857142858</ele><time>2026-04-05T12:03:22.088Z</time></trkpt><trkpt lat="43.934538" lon="8.1131715"><ele>118.71428571428572</ele><time>2026-04-05T12:03:23.088Z</time></trkpt><trkpt lat="43.9344808" lon="8.113225"><ele>117.85714285714286</ele><time>2026-04-05T12:03:24.088Z</time></trkpt><trkpt lat="43.9344027" lon="8.1132387"><ele>117.0</ele><time>2026-04-05T12:03:25.089Z</time></trkpt><trkpt lat="43.9343054" lon="8.1132155"><ele>116.0</ele><time>2026-04-05T12:03:26.088Z</time></trkpt><trkpt lat="43.9342023" lon="8.1131988"><ele>114.99999999999999</ele><time>2026-04-05T12:03:27.088Z</time></trkpt><trkpt lat="43.9341036" lon="8.1131842"><ele>113.99999999999999</ele><time>2026-04-05T12:03:28.089Z</time></trkpt><trkpt lat="43.9340102" lon="8.1131609"><ele>113.0</ele><time>2026-04-05T12:03:29.088Z</time></trkpt><trkpt lat="43.933919" lon="8.1131494"><ele>112.0</ele><time>2026-04-05T12:03:30.088Z</time></trkpt><trkpt lat="43.933828" lon="8.1131492"><ele>112.00000000000001</ele><time>2026-04-05T12:03:31.09Z</time></trkpt><trkpt lat="43.9337373" lon="8.1131462"><ele>112.0</ele><time>2026-04-05T12:03:32.089Z</time></trkpt><trkpt lat="43.9336453" lon="8.1131435"><ele>112.0</ele><time>2026-04-05T12:03:33.088Z</time></trkpt><trkpt lat="43.933557" lon="8.1131414"><ele>112.0</ele><time>2026-04-05T12:03:34.089Z</time></trkpt><trkpt lat="43.9334681" lon="8.1131266"><ele>112.00000000000001</ele><time>2026-04-05T12:03:35.089Z</time></trkpt><trkpt lat="43.9333816" lon="8.1130998"><ele>112.0</ele><time>2026-04-05T12:03:36.089Z</time></trkpt><trkpt lat="43.9332949" lon="8.1130631"><ele>109.39999999999999</ele><time>2026-04-05T12:03:37.088Z</time></trkpt><trkpt lat="43.9332067" lon="8.1130234"><ele>106.79999999999998</ele><time>2026-04-05T12:03:38.089Z</time></trkpt><trkpt lat="43.9331148" lon="8.112986"><ele>104.2</ele><time>2026-04-05T12:03:39.089Z</time></trkpt><trkpt lat="43.9330225" lon="8.1129523"><ele>101.6</ele><time>2026-04-05T12:03:40.088Z</time></trkpt><trkpt lat="43.9329274" lon="8.1129321"><ele>99.0</ele><time>2026-04-05T12:03:41.088Z</time></trkpt><trkpt lat="43.9328316" lon="8.1129188"><ele>99.0</ele><time>2026-04-05T12:03:42.088Z</time></trkpt><trkpt lat="43.9327382" lon="8.1128846"><ele>99.0</ele><time>2026-04-05T12:03:43.088Z</time></trkpt><trkpt lat="43.9326425" lon="8.112837"><ele>99.0</ele><time>2026-04-05T12:03:44.089Z</time></trkpt><trkpt lat="43.9325429" lon="8.1127745"><ele>99.0</ele><time>2026-04-05T12:03:45.088Z</time></trkpt><trkpt lat="43.9324368" lon="8.112718"><ele>99.0</ele><time>2026-04-05T12:03:46.09Z</time></trkpt><trkpt lat="43.9323334" lon="8.1126607"><ele>99.0</ele><time>2026-04-05T12:03:47.088Z</time></trkpt><trkpt lat="43.9322385" lon="8.1125939"><ele>99.0</ele><time>2026-04-05T12:03:48.088Z</time></trkpt><trkpt lat="43.9321489" lon="8.112528"><ele>99.0</ele><time>2026-04-05T12:03:49.089Z</time></trkpt><trkpt lat="43.9320606" lon="8.1124714"><ele>99.0</ele><time>2026-04-05T12:03:50.089Z</time></trkpt><trkpt lat="43.931977" lon="8.1124148"><ele>99.0</ele><time>2026-04-05T12:03:51.088Z</time></trkpt><trkpt lat="43.9318934" lon="8.1123683"><ele>99.0</ele><time>2026-04-05T12:03:52.089Z</time></trkpt><trkpt lat="43.931799" lon="8.1123343"><ele>99.0</ele><time>2026-04-05T12:03:53.088Z</time></trkpt><trkpt lat="43.9316966" lon="8.1123013"><ele>99.0</ele><time>2026-04-05T12:03:54.089Z</time></trkpt><trkpt lat="43.9315909" lon="8.1122708"><ele>99.0</ele><time>2026-04-05T12:03:55.088Z</time></trkpt><trkpt lat="43.9314834" lon="8.1122411"><ele>99.0</ele><time>2026-04-05T12:03:56.089Z</time></trkpt><trkpt lat="43.9313777" lon="8.1122128"><ele>96.66666666666667</ele><time>2026-04-05T12:03:57.089Z</time></trkpt><trkpt lat="43.9312777" lon="8.1121897"><ele>94.33333333333333</ele><time>2026-04-05T12:03:58.09Z</time></trkpt><trkpt lat="43.9311849" lon="8.1121761"><ele>92.0</ele><time>2026-04-05T12:03:59.089Z</time></trkpt><trkpt lat="43.9311003" lon="8.1121659"><ele>89.66666666666666</ele><time>2026-04-05T12:04:00.089Z</time></trkpt><trkpt lat="43.9310321" lon="8.1121617"><ele>87.33333333333333</ele><time>2026-04-05T12:04:01.089Z</time></trkpt><trkpt lat="43.9309398" lon="8.1121405"><ele>85.0</ele><time>2026-04-05T12:04:03.088Z</time></trkpt><trkpt lat="43.9308619" lon="8.1121255"><ele>75.0</ele><time>2026-04-05T12:04:06.088Z</time></trkpt></trkseg></trk></gpx>